Time;durP1;ratioP1;P1;durP2;ratioP2;P2;SDS_P1;SDS_P2;PMS_P1;PMS_P2;Temp;Humidity;BMP_temperature;BMP_pressure;BME280_temperature;BME280_humidity;BME280_pressure;Samples;Min_cycle;Max_cycle;Signal;HPM_P1;HPM_P2
2022/09/29 00:00:40;;;;;;;21.77;10.80;;;;;;;3.82;100.00;99893.66;4894784;29;20024;-84
2022/09/29 00:03:06;;;;;;;20.03;9.63;;;;;;;3.74;100.00;99876.28;4894045;29;20105;-84
2022/09/29 00:05:31;;;;;;;17.02;10.07;;;;;;;3.81;100.00;99889.41;4893928;29;20111;-84
2022/09/29 00:07:57;;;;;;;18.23;9.63;;;;;;;3.71;100.00;99882.06;4894413;29;20412;-84
2022/09/29 00:10:22;;;;;;;17.30;10.63;;;;;;;3.70;100.00;99889.19;4893303;29;20089;-84
2022/09/29 00:12:48;;;;;;;18.17;10.00;;;;;;;3.60;100.00;99862.50;4895182;29;20508;-84
2022/09/29 00:15:14;;;;;;;15.73;9.98;;;;;;;3.69;100.00;99871.69;4895350;29;20028;-84
2022/09/29 00:17:41;;;;;;;17.93;9.67;;;;;;;3.73;100.00;99886.06;4895018;29;20072;-84
2022/09/29 00:20:06;;;;;;;19.50;10.65;;;;;;;3.57;100.00;99870.91;4894651;29;20514;-84
2022/09/29 00:22:35;;;;;;;17.73;9.63;;;;;;;3.64;100.00;99868.94;4893590;29;20091;-84
2022/09/29 00:25:00;;;;;;;16.23;10.27;;;;;;;3.67;100.00;99886.22;4894836;29;20040;-84
2022/09/29 00:27:26;;;;;;;19.83;10.10;;;;;;;3.55;100.00;99878.28;4894973;29;20036;-84
2022/09/29 00:29:51;;;;;;;14.10;9.33;;;;;;;3.46;100.00;99876.03;4892012;29;20047;-83
2022/09/29 00:32:16;;;;;;;15.83;9.83;;;;;;;3.42;100.00;99874.88;4894266;29;20060;-83
2022/09/29 00:34:42;;;;;;;20.15;10.15;;;;;;;3.32;100.00;99877.28;4893236;29;20131;-83
2022/09/29 00:37:07;;;;;;;19.10;9.60;;;;;;;3.22;100.00;99869.13;4894216;29;20040;-83
2022/09/29 00:39:32;;;;;;;14.30;8.50;;;;;;;3.20;100.00;99874.66;4893860;29;20040;-84
2022/09/29 00:41:58;;;;;;;16.63;9.30;;;;;;;3.10;100.00;99858.56;4894083;29;20062;-83
2022/09/29 00:44:48;;;;;;;15.20;8.93;;;;;;;3.18;100.00;99880.19;4894435;29;20603;-83
2022/09/29 00:47:16;;;;;;;15.38;9.30;;;;;;;3.20;100.00;99876.50;4895057;29;20481;-83
2022/09/29 00:49:52;;;;;;;20.10;9.85;;;;;;;3.15;100.00;99872.72;4891807;29;20413;-83
2022/09/29 00:52:25;;;;;;;21.27;9.95;;;;;;;3.07;100.00;99870.44;4875380;29;20443;-83
2022/09/29 00:55:34;;;;;;;16.00;9.05;;;;;;;3.10;100.00;99883.22;4894519;29;20037;-83
2022/09/29 00:58:06;;;;;;;15.50;8.70;;;;;;;3.01;100.00;99880.06;4893889;29;20024;-83
2022/09/29 01:00:32;;;;;;;13.25;8.95;;;;;;;2.97;100.00;99883.41;4893574;29;20105;-83
2022/09/29 01:03:21;;;;;;;15.20;9.30;;;;;;;2.99;100.00;99873.41;4894297;29;20603;-83
2022/09/29 01:05:53;;;;;;;16.77;9.82;;;;;;;2.94;100.00;99863.53;4889678;29;20056;-84
2022/09/29 01:08:45;;;;;;;17.08;9.40;;;;;;;2.98;100.00;99874.44;4894333;29;20111;-83
2022/09/29 01:11:11;;;;;;;15.88;9.23;;;;;;;3.00;100.00;99875.84;4883479;29;20053;-83
2022/09/29 01:13:38;;;;;;;18.70;10.02;;;;;;;2.98;100.00;99869.97;4894670;29;20037;-83
2022/09/29 01:16:04;;;;;;;19.00;9.90;;;;;;;2.95;100.00;99865.13;4893905;29;20165;-83
2022/09/29 01:18:30;;;;;;;18.90;9.97;;;;;;;2.94;100.00;99875.94;4894992;29;20115;-83
2022/09/29 01:21:09;;;;;;;17.42;10.27;;;;;;;2.95;100.00;99867.78;4893246;29;20029;-83
2022/09/29 01:23:53;;;;;;;18.52;10.18;;;;;;;3.03;100.00;99871.91;4893023;29;20067;-83
2022/09/29 01:26:33;;;;;;;19.35;10.20;;;;;;;3.06;100.00;99879.41;4893584;29;20040;-83
2022/09/29 01:29:17;;;;;;;18.30;10.32;;;;;;;3.05;100.00;99880.44;4893645;29;20442;-83
2022/09/29 01:31:57;;;;;;;16.33;10.05;;;;;;;3.02;100.00;99886.19;4892709;29;20039;-83
2022/09/29 01:34:35;;;;;;;14.93;9.50;;;;;;;3.01;100.00;99887.22;4896990;29;20374;-83
2022/09/29 01:37:38;;;;;;;16.20;9.07;;;;;;;2.98;100.00;99871.78;4895052;29;20307;-83
2022/09/29 01:40:19;;;;;;;15.50;9.13;;;;;;;2.86;100.00;99866.50;4895587;29;20056;-83
2022/09/29 01:42:56;;;;;;;15.93;9.18;;;;;;;2.92;100.00;99875.38;4896610;29;20092;-83
2022/09/29 01:45:32;;;;;;;18.63;9.82;;;;;;;2.91;100.00;99885.16;4897462;29;20108;-83
2022/09/29 01:48:04;;;;;;;16.50;10.05;;;;;;;2.86;100.00;99882.38;4880220;29;20029;-83
2022/09/29 01:50:46;;;;;;;16.92;9.93;;;;;;;2.81;100.00;99885.72;4877790;29;20494;-83
2022/09/29 01:53:16;;;;;;;17.67;9.68;;;;;;;2.72;100.00;99871.22;4894323;29;20309;-83
2022/09/29 01:55:51;;;;;;;15.98;9.18;;;;;;;2.75;100.00;99877.88;4896524;29;20396;-83
2022/09/29 01:58:22;;;;;;;16.67;9.52;;;;;;;2.72;100.00;99881.81;4896772;29;20036;-83
2022/09/29 02:00:53;;;;;;;18.23;9.53;;;;;;;2.68;100.00;99878.78;4894804;29;20401;-83
2022/09/29 02:03:31;;;;;;;17.07;9.30;;;;;;;2.72;100.00;99877.31;4897025;29;20345;-83
2022/09/29 02:06:05;;;;;;;18.92;10.35;;;;;;;2.58;100.00;99868.78;4897335;29;20044;-83
2022/09/29 02:08:37;;;;;;;18.23;9.93;;;;;;;2.65;100.00;99879.25;4870634;29;20085;-83
2022/09/29 02:11:11;;;;;;;18.73;10.32;;;;;;;2.61;100.00;99875.47;4897102;29;20177;-83
2022/09/29 02:13:42;;;;;;;15.48;9.57;;;;;;;2.61;100.00;99882.59;4891518;29;20108;-83
2022/09/29 02:16:17;;;;;;;15.68;9.07;;;;;;;2.60;100.00;99884.44;4897462;29;20025;-83
2022/09/29 02:18:52;;;;;;;21.95;10.85;;;;;;;2.66;100.00;99878.22;4897752;29;20037;-83
2022/09/29 02:21:17;;;;;;;18.88;11.00;;;;;;;2.82;100.00;99886.53;4895268;29;20060;-83
2022/09/29 02:23:43;;;;;;;19.57;10.67;;;;;;;2.76;100.00;99871.56;4896116;29;20131;-83
2022/09/29 02:26:10;;;;;;;22.17;11.65;;;;;;;2.77;100.00;99875.81;4894809;29;20697;-83
2022/09/29 02:28:36;;;;;;;22.63;10.80;;;;;;;2.82;100.00;99889.97;4896004;29;20024;-83
2022/09/29 02:31:02;;;;;;;25.37;11.57;;;;;;;2.79;100.00;99887.78;4896760;29;20033;-84
2022/09/29 02:33:27;;;;;;;21.98;11.68;;;;;;;2.75;100.00;99886.63;4896762;29;20033;-83
2022/09/29 02:36:29;;;;;;;22.63;11.30;;;;;;;2.79;100.00;99887.78;4896981;29;20037;-83
2022/09/29 02:39:22;;;;;;;17.23;10.30;;;;;;;2.73;100.00;99886.88;4877900;29;20041;-83
2022/09/29 02:42:08;;;;;;;21.77;10.63;;;;;;;2.60;100.00;99868.56;4886291;29;20554;-83
2022/09/29 02:44:39;;;;;;;20.08;10.68;;;;;;;2.68;100.00;99885.94;4895806;29;20045;-83
2022/09/29 02:47:30;;;;;;;18.17;10.60;;;;;;;2.62;100.00;99881.56;4896973;29;20077;-83
2022/09/29 02:50:05;;;;;;;17.80;10.73;;;;;;;2.66;100.00;99888.00;4880235;29;20519;-83
2022/09/29 02:52:47;;;;;;;16.77;9.93;;;;;;;2.64;100.00;99885.59;4896552;29;20050;-82
2022/09/29 02:55:17;;;;;;;19.02;10.23;;;;;;;2.66;100.00;99880.06;4895712;29;20048;-82
2022/09/29 02:57:52;;;;;;;18.95;9.82;;;;;;;2.61;100.00;99886.06;4895258;29;20452;-83
2022/09/29 03:00:18;;;;;;;16.67;10.07;;;;;;;2.51;100.00;99873.38;4895159;29;20033;-83
2022/09/29 03:02:44;;;;;;;17.57;10.10;;;;;;;2.61;100.00;99890.53;4893310;29;20309;-83
2022/09/29 03:05:15;;;;;;;17.25;10.85;;;;;;;2.58;100.00;99882.00;4895961;29;20039;-83
2022/09/29 03:07:41;;;;;;;18.02;10.65;;;;;;;2.56;100.00;99886.72;4896182;29;20025;-83
2022/09/29 03:10:07;;;;;;;15.13;9.97;;;;;;;2.53;100.00;99883.72;4895798;29;20032;-83
2022/09/29 03:12:33;;;;;;;19.70;10.85;;;;;;;2.49;100.00;99880.75;4894310;29;20049;-83
2022/09/29 03:14:59;;;;;;;20.75;10.82;;;;;;;2.42;100.00;99875.56;4878965;29;20127;-83
2022/09/29 03:17:24;;;;;;;18.23;10.77;;;;;;;2.46;100.00;99881.19;4896291;29;20165;-83
2022/09/29 03:19:50;;;;;;;18.33;10.75;;;;;;;2.41;100.00;99881.06;4895777;29;20025;-83
2022/09/29 03:22:15;;;;;;;17.93;10.20;;;;;;;2.42;100.00;99885.31;4895552;29;20215;-83
2022/09/29 03:24:40;;;;;;;19.50;10.70;;;;;;;2.31;100.00;99884.25;4894667;29;20039;-83
2022/09/29 03:27:08;;;;;;;15.80;9.82;;;;;;;2.22;100.00;99877.69;4895586;29;20032;-83
2022/09/29 03:29:36;;;;;;;17.60;10.30;;;;;;;2.21;100.00;99876.84;4894658;29;20093;-83
2022/09/29 03:32:03;;;;;;;19.63;10.65;;;;;;;2.30;100.00;99873.91;4893268;29;20071;-83
2022/09/29 03:34:28;;;;;;;21.20;10.60;;;;;;;2.35;100.00;99881.97;4895553;29;20039;-83
2022/09/29 03:36:54;;;;;;;23.45;11.23;;;;;;;2.36;100.00;99884.38;4895853;29;20028;-83
2022/09/29 03:39:19;;;;;;;18.90;10.77;;;;;;;2.33;100.00;99884.03;4894785;29;20116;-82
2022/09/29 03:41:46;;;;;;;17.20;10.10;;;;;;;2.21;100.00;99882.16;4893628;29;20045;-83
2022/09/29 03:44:11;;;;;;;18.98;9.98;;;;;;;2.22;100.00;99888.25;4892666;29;20036;-83
2022/09/29 03:46:37;;;;;;;17.25;10.10;;;;;;;2.22;100.00;99888.25;4895608;29;20111;-83
2022/09/29 03:49:02;;;;;;;16.17;9.67;;;;;;;2.15;100.00;99876.97;4895412;29;20061;-83
2022/09/29 03:51:27;;;;;;;17.90;9.53;;;;;;;2.14;100.00;99888.56;4894190;29;20033;-83
2022/09/29 03:53:53;;;;;;;16.17;9.93;;;;;;;2.08;100.00;99879.69;4894613;29;20044;-83
2022/09/29 03:56:18;;;;;;;20.77;10.48;;;;;;;2.09;100.00;99876.03;4894722;29;20128;-83
2022/09/29 03:58:44;;;;;;;15.57;10.03;;;;;;;2.14;100.00;99893.84;4891203;29;20029;-83
2022/09/29 04:01:09;;;;;;;17.57;10.20;;;;;;;2.12;100.00;99891.44;4894815;29;20032;-84
2022/09/29 04:03:34;;;;;;;18.20;10.77;;;;;;;2.08;100.00;99885.81;4893810;29;20035;-84
2022/09/29 04:05:59;;;;;;;19.37;11.23;;;;;;;2.12;100.00;99892.22;4895532;29;20119;-83
2022/09/29 04:08:25;;;;;;;16.70;10.90;;;;;;;2.08;100.00;99884.97;4895115;29;20547;-84
2022/09/29 04:10:50;;;;;;;19.42;10.82;;;;;;;2.11;100.00;99900.41;4895091;29;20433;-84
2022/09/29 04:13:15;;;;;;;16.67;9.70;;;;;;;2.00;100.00;99894.03;4895243;29;20033;-83
2022/09/29 04:15:41;;;;;;;19.63;10.43;;;;;;;2.02;100.00;99899.09;4890834;29;20464;-84
2022/09/29 04:18:06;;;;;;;18.97;10.77;;;;;;;2.00;100.00;99891.38;4895488;29;20031;-83
2022/09/29 04:20:32;;;;;;;18.83;11.53;;;;;;;2.05;100.00;99903.94;4892119;29;20059;-85
2022/09/29 04:22:59;;;;;;;21.73;11.17;;;;;;;2.01;100.00;99908.84;4893346;29;20300;-85
2022/09/29 04:25:25;;;;;;;21.10;11.45;;;;;;;2.00;100.00;99903.81;4894608;29;20037;-85
2022/09/29 04:27:51;;;;;;;20.38;11.25;;;;;;;1.99;100.00;99899.56;4894220;29;20029;-85
2022/09/29 04:30:17;;;;;;;21.10;10.50;;;;;;;2.03;100.00;99911.28;4875168;29;20024;-84
2022/09/29 04:32:42;;;;;;;19.88;11.80;;;;;;;2.05;100.00;99903.94;4893670;29;20102;-84
2022/09/29 04:35:08;;;;;;;23.53;11.27;;;;;;;2.04;100.00;99915.53;4894597;29;20624;-85
2022/09/29 04:37:33;;;;;;;17.80;11.25;;;;;;;1.99;100.00;99916.19;4894579;29;20048;-85
2022/09/29 04:39:59;;;;;;;19.43;11.23;;;;;;;1.94;100.00;99914.22;4891422;29;20033;-84
2022/09/29 04:42:24;;;;;;;19.20;11.05;;;;;;;1.81;100.00;99895.91;4893060;29;20111;-85
2022/09/29 04:44:50;;;;;;;21.93;10.87;;;;;;;1.89;100.00;99927.28;4894409;29;20044;-84
2022/09/29 04:47:15;;;;;;;21.90;11.90;;;;;;;1.85;100.00;99920.84;4893443;29;20069;-84
2022/09/29 04:49:41;;;;;;;20.92;11.57;;;;;;;1.82;100.00;99926.59;4904309;29;20104;-84
2022/09/29 04:52:06;;;;;;;20.30;11.77;;;;;;;1.87;100.00;99923.28;4894047;29;20029;-84
2022/09/29 04:54:33;;;;;;;22.67;12.27;;;;;;;1.85;100.00;99917.41;4894927;29;20027;-84
2022/09/29 04:57:00;;;;;;;21.90;11.82;;;;;;;1.83;100.00;99917.59;4905458;29;20033;-84
2022/09/29 04:59:26;;;;;;;23.10;13.07;;;;;;;1.76;100.00;99917.69;4894463;29;20123;-84
2022/09/29 05:01:51;;;;;;;21.55;11.93;;;;;;;1.74;100.00;99911.03;4896124;29;20071;-85
2022/09/29 05:04:16;;;;;;;23.27;11.87;;;;;;;1.76;100.00;99922.19;4892819;29;20064;-85
2022/09/29 05:06:41;;;;;;;23.23;12.07;;;;;;;1.80;100.00;99933.94;4906330;29;20040;-84
2022/09/29 05:09:07;;;;;;;19.87;11.27;;;;;;;1.73;100.00;99926.09;4899177;29;20021;-85
2022/09/29 05:11:33;;;;;;;19.42;11.88;;;;;;;1.74;100.00;99934.81;4897368;29;20036;-84
2022/09/29 05:13:59;;;;;;;19.95;11.73;;;;;;;1.67;100.00;99922.47;4898478;29;20392;-84
2022/09/29 05:16:24;;;;;;;21.30;11.93;;;;;;;1.72;100.00;99939.50;4894166;29;20066;-84
2022/09/29 05:18:50;;;;;;;20.17;12.50;;;;;;;1.61;100.00;99919.91;4897335;29;21336;-84
2022/09/29 05:21:16;;;;;;;23.17;11.77;;;;;;;1.72;100.00;99942.97;4898015;29;20039;-84
2022/09/29 05:23:41;;;;;;;22.33;12.07;;;;;;;1.72;100.00;99947.41;4898164;29;20033;-84
2022/09/29 05:26:08;;;;;;;26.25;12.57;;;;;;;1.70;100.00;99952.09;4897162;29;20025;-84
2022/09/29 05:28:35;;;;;;;19.90;11.68;;;;;;;1.67;100.00;99959.44;4898110;29;20037;-84
2022/09/29 05:31:02;;;;;;;26.25;12.20;;;;;;;1.53;100.00;99944.78;4894185;29;20366;-85
2022/09/29 05:33:28;;;;;;;33.03;13.40;;;;;;;1.63;100.00;99954.81;4895059;29;20029;-85
2022/09/29 05:35:54;;;;;;;23.57;12.27;;;;;;;1.62;100.00;99951.38;4896760;29;20305;-85
2022/09/29 05:38:19;;;;;;;24.20;12.73;;;;;;;1.61;100.00;99947.13;4897089;29;20434;-85
2022/09/29 05:40:45;;;;;;;21.70;12.43;;;;;;;1.65;100.00;99964.13;4895012;29;20485;-85
2022/09/29 05:43:10;;;;;;;23.13;12.67;;;;;;;1.55;100.00;99949.84;4896104;29;20028;-85
2022/09/29 05:45:36;;;;;;;24.23;12.60;;;;;;;1.56;100.00;99965.47;4896749;29;20067;-85
2022/09/29 05:48:01;;;;;;;23.43;12.37;;;;;;;1.54;100.00;99961.44;4896958;29;20124;-85
2022/09/29 05:50:26;;;;;;;24.40;12.57;;;;;;;1.45;100.00;99947.72;4896781;29;20465;-84
2022/09/29 05:52:52;;;;;;;25.60;13.45;;;;;;;1.51;100.00;99952.91;4895985;29;20045;-84
2022/09/29 05:55:17;;;;;;;29.73;13.50;;;;;;;1.65;100.00;99966.78;4895762;29;20032;-85
2022/09/29 05:57:48;;;;;;;26.98;13.35;;;;;;;1.72;100.00;99973.84;4897272;29;20781;-84
2022/09/29 06:00:13;;;;;;;27.60;14.07;;;;;;;1.76;100.00;99973.16;4896956;29;20067;-84
2022/09/29 06:02:38;;;;;;;33.72;15.20;;;;;;;1.87;100.00;99976.13;4895384;29;20060;-85
2022/09/29 06:05:04;;;;;;;31.40;15.97;;;;;;;2.02;100.00;99988.94;4896395;29;20031;-84
2022/09/29 06:07:29;;;;;;;36.33;15.63;;;;;;;2.07;100.00;99981.16;4895799;29;20462;-84
2022/09/29 06:09:55;;;;;;;31.40;15.95;;;;;;;2.04;100.00;99977.13;4892728;29;20036;-88
2022/09/29 06:12:20;;;;;;;29.63;15.43;;;;;;;1.95;100.00;99966.06;4897153;29;20089;-85
2022/09/29 06:14:46;;;;;;;29.87;15.73;;;;;;;1.99;100.00;99969.06;4895925;29;20036;-87
2022/09/29 06:17:11;;;;;;;36.20;16.73;;;;;;;2.07;100.00;99983.81;4896749;29;20036;-86
2022/09/29 06:19:36;;;;;;;35.50;15.40;;;;;;;2.14;100.00;99992.47;4895374;29;20189;-87
2022/09/29 06:22:02;;;;;;;33.60;16.10;;;;;;;2.15;100.00;99999.38;4899134;29;20106;-87
2022/09/29 06:24:27;;;;;;;37.83;15.93;;;;;;;2.08;100.00;99982.78;4896329;29;20028;-87
2022/09/29 06:26:52;;;;;;;35.23;15.80;;;;;;;2.16;100.00;99993.06;4896128;29;20068;-86
2022/09/29 06:29:18;;;;;;;30.13;15.47;;;;;;;2.11;100.00;99984.97;4893333;29;20100;-87
2022/09/29 06:31:43;;;;;;;29.10;14.93;;;;;;;1.94;100.00;99967.09;4896710;29;20032;-85
2022/09/29 06:34:09;;;;;;;33.40;16.25;;;;;;;2.16;100.00;99995.69;4896365;29;20661;-85
2022/09/29 06:39:28;;;;;;;38.10;17.48;;;;;;;2.42;100.00;99993.72;4896824;29;20043;-87
2022/09/29 06:41:55;;;;;;;42.97;18.98;;;;;;;2.68;100.00;100010.28;4896367;29;20033;-87
2022/09/29 06:44:23;;;;;;;48.50;19.42;;;;;;;2.77;100.00;100014.19;4895935;29;20094;-87
2022/09/29 06:46:50;;;;;;;48.72;20.48;;;;;;;2.88;100.00;100010.81;4896724;29;20028;-89
2022/09/29 06:49:16;;;;;;;49.37;20.60;;;;;;;2.93;100.00;100009.28;4896983;29;20035;-88
2022/09/29 06:51:42;;;;;;;52.20;20.60;;;;;;;3.02;100.00;100018.53;4894566;29;20343;-89
2022/09/29 06:54:16;;;;;;;56.72;22.67;;;;;;;3.06;100.00;100011.75;4893849;29;20700;-89
2022/09/29 06:56:41;;;;;;;58.67;22.90;;;;;;;3.25;100.00;100016.97;4896040;29;20119;-87
2022/09/29 06:59:07;;;;;;;51.57;20.67;;;;;;;3.24;100.00;100023.28;4895863;29;20469;-89
2022/09/29 07:01:32;;;;;;;58.00;23.10;;;;;;;3.25;100.00;100011.66;4894839;29;20025;-87
2022/09/29 07:04:01;;;;;;;58.93;22.93;;;;;;;3.28;100.00;100005.91;4895949;29;20074;-92
2022/09/29 07:06:28;;;;;;;58.03;21.42;;;;;;;3.43;100.00;100027.44;4894057;29;20032;-88
2022/09/29 07:08:54;;;;;;;55.83;21.77;;;;;;;3.49;100.00;100031.81;4895641;29;20063;-93
2022/09/29 07:11:19;;;;;;;56.85;22.60;;;;;;;3.51;100.00;100028.13;4892507;29;20033;-90
2022/09/29 07:13:44;;;;;;;60.70;22.77;;;;;;;3.54;100.00;100038.28;4894547;29;20024;-88
2022/09/29 07:16:12;;;;;;;57.73;22.60;;;;;;;3.41;100.00;100005.69;4894003;29;20028;-88
2022/09/29 07:18:39;;;;;;;65.43;24.60;;;;;;;3.75;100.00;100037.69;4896568;29;20038;-87
2022/09/29 07:21:08;;;;;;;64.32;26.08;;;;;;;3.71;100.00;100012.69;4895706;29;20032;-88
2022/09/29 07:23:34;;;;;;;65.22;25.92;;;;;;;4.00;100.00;100036.63;4878860;29;20405;-87
2022/09/29 07:26:00;;;;;;;72.55;26.67;;;;;;;4.07;100.00;100049.78;4895867;29;20052;-87
2022/09/29 07:28:26;;;;;;;68.53;26.90;;;;;;;4.09;100.00;100048.47;4895333;29;20040;-88
2022/09/29 07:31:03;;;;;;;65.45;26.70;;;;;;;4.20;100.00;100057.47;4894906;29;20024;-87
2022/09/29 07:33:32;;;;;;;67.30;25.92;;;;;;;4.22;100.00;100058.03;4896049;29;20037;-87
2022/09/29 07:35:59;;;;;;;69.22;27.13;;;;;;;4.32;100.00;100057.44;4892495;29;20048;-88
2022/09/29 07:38:28;;;;;;;74.90;29.40;;;;;;;4.49;100.00;100056.69;4877712;29;20032;-88
2022/09/29 07:40:58;;;;;;;79.72;30.08;;;;;;;4.54;100.00;100054.16;4900763;29;20092;-88
2022/09/29 07:43:23;;;;;;;79.88;31.52;;;;;;;4.74;100.00;100060.88;4903290;29;20125;-88
2022/09/29 07:45:50;;;;;;;79.53;30.60;;;;;;;4.77;100.00;100063.03;4902346;29;20029;-88
2022/09/29 07:48:16;;;;;;;82.03;30.88;;;;;;;4.83;100.00;100062.09;4901952;29;20036;-87
2022/09/29 07:50:42;;;;;;;81.70;31.88;;;;;;;4.90;100.00;100068.06;4895659;29;20024;-88
2022/09/29 07:53:08;;;;;;;93.77;35.63;;;;;;;5.03;100.00;100055.53;4895783;29;20032;-88
2022/09/29 07:55:33;;;;;;;98.77;36.27;;;;;;;5.25;100.00;100079.53;4894256;29;20386;-88
2022/09/29 07:58:00;;;;;;;101.70;36.67;;;;;;;5.37;100.00;100064.34;4895315;29;20132;-88
2022/09/29 08:00:26;;;;;;;104.65;37.15;;;;;;;5.40;100.00;100068.34;4894763;29;20016;-89
2022/09/29 08:02:51;;;;;;;95.23;35.13;;;;;;;5.52;100.00;100084.22;4895107;29;20048;-90
2022/09/29 08:05:17;;;;;;;101.43;38.40;;;;;;;5.61;100.00;100086.22;4891027;29;20375;-89
2022/09/29 08:07:42;;;;;;;115.57;40.27;;;;;;;5.68;100.00;100064.78;4895734;29;20116;-88
2022/09/29 08:10:08;;;;;;;111.60;43.13;;;;;;;5.75;100.00;100054.00;4894642;29;20032;-90
2022/09/29 08:12:33;;;;;;;97.32;37.88;;;;;;;5.88;100.00;100066.94;4896561;29;20102;-90
2022/09/29 08:15:01;;;;;;;95.60;35.90;;;;;;;6.02;100.00;100088.69;4897622;29;20039;-89
2022/09/29 08:17:26;;;;;;;91.50;36.10;;;;;;;6.16;100.00;100089.16;4896030;29;20028;-88
2022/09/29 08:19:51;;;;;;;82.60;33.30;;;;;;;6.12;100.00;100088.03;4894601;29;20361;-91
2022/09/29 08:22:17;;;;;;;82.73;32.93;;;;;;;6.18;100.00;100104.84;4890796;29;20534;-91
2022/09/29 08:24:43;;;;;;;76.70;30.87;;;;;;;6.17;100.00;100095.25;4891742;29;20401;-88
2022/09/29 08:27:08;;;;;;;79.60;31.65;;;;;;;6.24;100.00;100101.22;4895691;29;20124;-90
2022/09/29 08:29:33;;;;;;;76.07;31.93;;;;;;;6.30;100.00;100096.75;4894222;29;20115;-88
2022/09/29 08:31:59;;;;;;;84.23;35.17;;;;;;;6.49;100.00;100107.91;4895500;29;20537;-88
2022/09/29 08:34:24;;;;;;;81.97;32.87;;;;;;;6.63;100.00;100103.00;4895155;29;20043;-89
2022/09/29 08:36:50;;;;;;;86.87;35.23;;;;;;;6.77;100.00;100104.22;4894703;29;20533;-89
2022/09/29 08:39:18;;;;;;;84.32;35.45;;;;;;;7.03;100.00;100120.47;4894854;29;20108;-89
2022/09/29 08:41:55;;;;;;;67.72;33.75;;;;;;;7.12;100.00;100118.97;4894758;29;20078;-88
2022/09/29 08:44:54;;;;;;;76.40;34.10;;;;;;;7.40;100.00;100117.09;4895342;29;20365;-88
2022/09/29 08:47:28;;;;;;;71.00;30.55;;;;;;;7.69;100.00;100121.31;4892819;29;20104;-89
2022/09/29 08:49:58;;;;;;;68.18;30.38;;;;;;;7.91;100.00;100131.88;4893590;29;20454;-89
2022/09/29 08:52:39;;;;;;;63.38;28.10;;;;;;;7.86;100.00;100099.81;4895255;29;20052;-88
2022/09/29 08:55:16;;;;;;;54.17;24.65;;;;;;;8.11;100.00;100133.06;4893993;29;20043;-87
2022/09/29 08:57:44;;;;;;;54.13;23.83;;;;;;;8.15;100.00;100131.47;4894677;29;20032;-88
2022/09/29 09:00:13;;;;;;;49.77;23.73;;;;;;;8.25;100.00;100131.53;4891617;29;20039;-89
2022/09/29 09:02:47;;;;;;;51.67;24.33;;;;;;;8.33;100.00;100139.06;4895493;29;20318;-90
2022/09/29 09:05:26;;;;;;;47.53;22.80;;;;;;;8.45;100.00;100140.69;4894101;29;20037;-88
2022/09/29 09:08:15;;;;;;;48.20;22.90;;;;;;;8.57;100.00;100144.00;4888646;29;20021;-88
2022/09/29 09:11:24;;;;;;;39.80;20.88;;;;;;;8.73;100.00;100146.72;4883686;29;20044;-89
2022/09/29 09:13:52;;;;;;;34.20;20.27;;;;;;;8.82;100.00;100145.16;4883768;29;20044;-88
2022/09/29 09:16:31;;;;;;;32.15;17.92;;;;;;;8.98;100.00;100151.34;4889793;29;20032;-89
2022/09/29 09:19:10;;;;;;;30.52;17.60;;;;;;;9.07;100.00;100159.66;4900613;29;20038;-89
2022/09/29 09:21:46;;;;;;;28.80;14.85;;;;;;;9.20;100.00;100156.47;4891395;29;20032;-89
2022/09/29 09:24:39;;;;;;;28.20;15.25;;;;;;;9.46;100.00;100159.19;4880170;29;20052;-91
2022/09/29 09:27:12;;;;;;;21.10;11.60;;;;;;;9.51;100.00;100155.69;4896536;29;20133;-92
2022/09/29 09:29:44;;;;;;;25.87;14.23;;;;;;;9.72;100.00;100158.38;4910774;29;20300;-93
2022/09/29 09:32:16;;;;;;;18.58;12.05;;;;;;;9.69;100.00;100159.69;4911392;29;20056;-92
2022/09/29 09:35:15;;;;;;;21.65;12.00;;;;;;;9.61;100.00;100161.03;4907999;29;20020;-90
2022/09/29 09:37:42;;;;;;;22.33;12.40;;;;;;;9.42;100.00;100151.94;4898729;29;20029;-89
2022/09/29 09:40:14;;;;;;;18.20;11.80;;;;;;;9.35;100.00;100155.69;4901011;29;20052;-89
2022/09/29 09:42:44;;;;;;;21.17;11.82;;;;;;;9.33;100.00;100155.16;4900992;29;20052;-90
2022/09/29 09:45:16;;;;;;;21.70;11.48;;;;;;;9.12;100.00;100143.63;4904960;29;20047;-89
2022/09/29 09:47:50;;;;;;;18.83;11.45;;;;;;;9.20;100.00;100153.78;4899445;29;20117;-90
2022/09/29 09:50:19;;;;;;;18.38;11.00;;;;;;;9.08;100.00;100138.00;4908309;29;20032;-89
2022/09/29 09:52:50;;;;;;;14.27;9.93;;;;;;;9.19;100.00;100157.53;4910669;29;20033;-89
2022/09/29 09:55:18;;;;;;;20.80;11.27;;;;;;;9.13;100.00;100152.44;4911988;29;20281;-89
2022/09/29 09:57:53;;;;;;;20.40;10.65;;;;;;;9.24;100.00;100167.41;4905290;29;20028;-89
2022/09/29 10:00:34;;;;;;;17.45;9.70;;;;;;;9.28;100.00;100162.38;4908955;29;20037;-89
2022/09/29 10:03:06;;;;;;;13.90;10.00;;;;;;;9.37;100.00;100171.44;4910310;29;20021;-90
2022/09/29 10:05:37;;;;;;;16.75;9.18;;;;;;;9.38;100.00;100165.84;4914375;29;20174;-90
2022/09/29 10:08:04;;;;;;;13.95;9.27;;;;;;;9.46;100.00;100167.19;4908720;29;20024;-89
2022/09/29 10:10:30;;;;;;;14.50;9.32;;;;;;;9.42;100.00;100141.25;4906506;29;20044;-90
2022/09/29 10:13:00;;;;;;;9.33;7.00;;;;;;;9.64;100.00;100173.09;4917247;29;20017;-90
2022/09/29 10:15:34;;;;;;;10.18;5.40;;;;;;;9.64;100.00;100173.88;4916478;29;20052;-89
2022/09/29 10:18:11;;;;;;;9.02;5.90;;;;;;;9.68;100.00;100168.78;4916379;29;20057;-88
2022/09/29 10:20:40;;;;;;;8.35;5.22;;;;;;;9.75;100.00;100173.91;4910741;29;20077;-88
2022/09/29 10:23:38;;;;;;;8.25;3.72;;;;;;;9.78;100.00;100176.00;4908019;29;20021;-90
2022/09/29 10:26:11;;;;;;;5.70;3.95;;;;;;;9.87;100.00;100184.31;4868227;29;20045;-90
2022/09/29 10:28:45;;;;;;;9.05;5.30;;;;;;;9.76;100.00;100152.22;4915223;29;20383;-90
2022/09/29 10:31:23;;;;;;;6.30;4.32;;;;;;;9.76;100.00;100143.41;4920486;29;20144;-91
2022/09/29 10:34:02;;;;;;;8.97;4.40;;;;;;;10.07;100.00;100167.44;4906561;29;20041;-91
2022/09/29 10:36:46;;;;;;;7.53;3.33;;;;;;;10.25;100.00;100187.47;4918804;29;20295;-92
2022/09/29 10:39:30;;;;;;;6.15;2.42;;;;;;;10.41;100.00;100183.72;4918181;29;20028;-88
2022/09/29 10:41:55;;;;;;;6.30;2.28;;;;;;;10.53;100.00;100174.59;4917297;29;20062;-91
2022/09/29 10:44:21;;;;;;;4.40;2.60;;;;;;;10.71;100.00;100178.53;4918713;29;20029;-90
2022/09/29 10:46:55;;;;;;;4.30;2.42;;;;;;;10.59;100.00;100154.75;4915166;29;20079;-91
2022/09/29 10:49:29;;;;;;;3.30;2.60;;;;;;;11.05;100.00;100185.88;4913676;29;20029;-89
2022/09/29 10:52:02;;;;;;;4.13;2.60;;;;;;;11.18;100.00;100173.72;4920020;29;20035;-95
2022/09/29 10:54:52;;;;;;;4.37;2.00;;;;;;;11.25;100.00;100160.00;5086637;23;20482;-91
2022/09/29 10:57:25;;;;;;;3.13;2.28;;;;;;;11.40;97.22;100157.25;4912637;29;20035;-90
2022/09/29 10:59:52;;;;;;;4.70;2.50;;;;;;;11.68;99.83;100181.72;4924011;29;20051;-91
2022/09/29 11:02:34;;;;;;;5.07;2.33;;;;;;;11.90;100.00;100191.97;4899709;29;20112;-90
2022/09/29 11:05:16;;;;;;;3.35;2.35;;;;;;;12.05;98.37;100179.56;4899931;29;20056;-91
2022/09/29 11:07:47;;;;;;;4.75;2.28;;;;;;;12.42;93.94;100202.25;4894663;29;20112;-92
2022/09/29 11:10:30;;;;;;;3.83;2.58;;;;;;;12.45;92.10;100174.03;4894801;29;20043;-90
2022/09/29 11:12:59;;;;;;;4.07;2.85;;;;;;;12.76;87.96;100195.16;4893902;29;20032;-91
2022/09/29 11:15:37;;;;;;;4.03;2.40;;;;;;;12.88;91.39;100190.16;4894222;29;20493;-91
2022/09/29 11:18:19;;;;;;;4.93;2.50;;;;;;;12.98;91.35;100200.81;4897278;29;20032;-90
2022/09/29 11:20:51;;;;;;;3.63;2.80;;;;;;;13.03;86.29;100191.84;4895480;29;20827;-91
2022/09/29 11:23:37;;;;;;;7.45;2.67;;;;;;;13.25;84.25;100201.25;4896351;29;20047;-90
2022/09/29 11:26:12;;;;;;;4.97;2.55;;;;;;;13.46;85.74;100199.88;4884244;29;20036;-90
2022/09/29 11:29:22;;;;;;;3.22;2.38;;;;;;;13.82;87.88;100206.59;4895769;29;20736;-91
2022/09/29 11:32:17;;;;;;;5.65;2.15;;;;;;;13.86;82.51;100196.03;4802029;29;20043;-90
2022/09/29 11:34:55;;;;;;;5.43;2.05;;;;;;;13.82;83.12;100189.66;4899952;29;20054;-89